EXS1TL EGGW-LEAL
Flight info
| Callsign | EXS1TL |
|---|---|
| Flight time | N/A |
| Altitude | 35000 |
| Route | RODNI N27 ICTAM Q63 CPT N859 VAPID UN859 BENAR/N0445F330 UN859 SOPIL DCT BALAN DCT LMG/N0452F370 DCT PIMQO DCT AGN DCT ANETO DCT POSSY DCT XIMPE DCT RIMES N860 VLC |
| Aircraft | A21N/M-SDE2E3FGHIRWXY/LB1 |
Departure
| Time | 2026-05-06 13:02 |
|---|---|
| Airport | London Luton Airport (EGGW) |
Arrival
| Time | N/A |
|---|---|
| Airport | Alicante-Elche Miguel Hernández Airport (LEAL) |
| Time | Latitude | Longitude | Altitude | Speed | Heading |
|---|---|---|---|---|---|
| 2026-05-06 12:38 | 51.88180 | -0.37315 | 522 ft | 0 kts | 161° |
| 2026-05-06 12:38 | 51.88179 | -0.37315 | 522 ft | 0 kts | 161° |
| 2026-05-06 12:52 | 51.88180 | -0.37315 | 522 ft | 1 kts | 161° |
| 2026-05-06 12:52 | 51.88202 | -0.37327 | 522 ft | 2 kts | 161° |
| 2026-05-06 12:52 | 51.88222 | -0.37335 | 522 ft | 4 kts | 193° |
| 2026-05-06 12:52 | 51.88232 | -0.37316 | 522 ft | 4 kts | 251° |
| 2026-05-06 12:53 | 51.88238 | -0.37288 | 522 ft | 0 kts | 251° |
| 2026-05-06 12:55 | 51.88234 | -0.37308 | 522 ft | 4 kts | 251° |
| 2026-05-06 12:55 | 51.88221 | -0.37370 | 522 ft | 8 kts | 251° |
| 2026-05-06 12:55 | 51.88202 | -0.37471 | 522 ft | 11 kts | 263° |
| 2026-05-06 12:56 | 51.88203 | -0.37605 | 523 ft | 14 kts | 240° |
| 2026-05-06 12:56 | 51.88146 | -0.37755 | 529 ft | 17 kts | 232° |
| 2026-05-06 12:56 | 51.88054 | -0.37890 | 529 ft | 19 kts | 217° |
| 2026-05-06 12:56 | 51.87942 | -0.38011 | 529 ft | 20 kts | 191° |
| 2026-05-06 12:57 | 51.87812 | -0.37944 | 529 ft | 22 kts | 126° |
| 2026-05-06 12:57 | 51.87743 | -0.37723 | 528 ft | 22 kts | 115° |
| 2026-05-06 12:57 | 51.87685 | -0.37529 | 526 ft | 18 kts | 128° |
| 2026-05-06 12:57 | 51.87581 | -0.37455 | 528 ft | 17 kts | 187° |
| 2026-05-06 12:58 | 51.87497 | -0.37568 | 528 ft | 18 kts | 257° |
| 2026-05-06 12:58 | 51.87464 | -0.37770 | 528 ft | 19 kts | 254° |
| 2026-05-06 12:58 | 51.87428 | -0.37975 | 529 ft | 16 kts | 251° |
| 2026-05-06 12:58 | 51.87369 | -0.38067 | 528 ft | 12 kts | 205° |
| 2026-05-06 12:59 | 51.87355 | -0.38078 | 528 ft | 0 kts | 205° |
| 2026-05-06 12:59 | 51.87345 | -0.38085 | 528 ft | 4 kts | 205° |
| 2026-05-06 13:00 | 51.87313 | -0.38109 | 527 ft | 6 kts | 203° |
| 2026-05-06 13:00 | 51.87260 | -0.38115 | 529 ft | 9 kts | 196° |
| 2026-05-06 13:00 | 51.87226 | -0.38214 | 528 ft | 12 kts | 262° |
| 2026-05-06 13:00 | 51.87211 | -0.38331 | 525 ft | 13 kts | 181° |
| 2026-05-06 13:01 | 51.87224 | -0.38227 | 528 ft | 10 kts | 66° |
| 2026-05-06 13:01 | 51.87227 | -0.38210 | 528 ft | 0 kts | 75° |
| 2026-05-06 13:01 | 51.87229 | -0.38199 | 528 ft | 10 kts | 75° |
| 2026-05-06 13:02 | 51.87328 | -0.37622 | 526 ft | 94 kts | 73° |
| 2026-05-06 13:02 | 51.87573 | -0.36237 | 533 ft | 157 kts | 69° |
| 2026-05-06 13:02 | 51.87879 | -0.34480 | 1119 ft | 165 kts | 71° |
| 2026-05-06 13:02 | 51.88186 | -0.32669 | 1891 ft | 173 kts | 70° |
| 2026-05-06 13:03 | 51.88538 | -0.30707 | 2385 ft | 189 kts | 71° |
| 2026-05-06 13:03 | 51.88924 | -0.28577 | 2916 ft | 205 kts | 71° |
| 2026-05-06 13:03 | 51.89313 | -0.26248 | 3304 ft | 224 kts | 77° |
| 2026-05-06 13:03 | 51.89331 | -0.24528 | 3580 ft | 239 kts | 95° |
| 2026-05-06 13:04 | 51.88240 | -0.21229 | 3983 ft | 267 kts | 136° |
| 2026-05-06 13:04 | 51.87195 | -0.20164 | 4027 ft | 273 kts | 157° |
| 2026-05-06 13:04 | 51.84718 | -0.20156 | 4479 ft | 278 kts | 202° |
| 2026-05-06 13:04 | 51.83180 | -0.21980 | 5028 ft | 276 kts | 234° |
| 2026-05-06 13:05 | 51.82582 | -0.23805 | 5406 ft | 273 kts | 255° |
| 2026-05-06 13:05 | 51.82691 | -0.27724 | 6101 ft | 266 kts | 293° |
| 2026-05-06 13:05 | 51.83163 | -0.29603 | 6471 ft | 268 kts | 294° |
| 2026-05-06 13:05 | 51.83314 | -0.32584 | 6941 ft | 275 kts | 262° |
| 2026-05-06 13:06 | 51.82825 | -0.35582 | 7488 ft | 277 kts | 257° |
| 2026-05-06 13:06 | 51.82285 | -0.38576 | 8025 ft | 278 kts | 256° |
| 2026-05-06 13:06 | 51.81770 | -0.41585 | 8607 ft | 278 kts | 258° |
| 2026-05-06 13:06 | 51.81282 | -0.44607 | 9170 ft | 278 kts | 258° |
| 2026-05-06 13:07 | 51.80802 | -0.47644 | 9726 ft | 279 kts | 258° |
| 2026-05-06 13:07 | 51.80324 | -0.50720 | 10168 ft | 284 kts | 258° |
| 2026-05-06 13:07 | 51.79838 | -0.53880 | 10389 ft | 296 kts | 258° |
| 2026-05-06 13:07 | 51.79333 | -0.57170 | 10553 ft | 307 kts | 258° |
| 2026-05-06 13:08 | 51.78811 | -0.60576 | 10700 ft | 317 kts | 258° |
| 2026-05-06 13:08 | 51.78279 | -0.64042 | 11045 ft | 317 kts | 258° |
| 2026-05-06 13:08 | 51.77756 | -0.67445 | 11490 ft | 315 kts | 258° |
| 2026-05-06 13:08 | 51.77221 | -0.70929 | 11872 ft | 316 kts | 257° |
| 2026-05-06 13:09 | 51.76688 | -0.74377 | 12231 ft | 317 kts | 258° |
| 2026-05-06 13:09 | 51.76280 | -0.76637 | 12458 ft | 319 kts | 252° |